Forside
METAR-TAF:

METAR-TAF

Lufthavne :

Rochelle Municipal Airport (Koritz Field)

Rochelle, Illinois, USA

Breddekreds: 41-53-35N, længdekreds: 089-04-42W, højde: 238 m

Aktuelle vejr

Denne rapport blev lavet for 20 minutter siden, kl. 19:35 UTC
Vind 10 kt fra sydsydvest
Temperatur 7°C
Fugtighed 61%
Tryk 1020 hPa
Sigt: 16.1 km
skyfri

METAR: KRPJ 221935Z AUTO 21010KT 10SM CLR 07/00 A3013 RMK AO2 T00731005

Tid: 13:55 (19:55 UTC)


TAF: fraværende

Vejrobservationer og prognoser fra mere end 4000 lufthavne (METAR og TAF).

De gule og røde prikker repræsenterer de meteorologiske stationer.

Flyt musen over at se navnet på stationen.

Så klik over at se vejr observationer og prognoser.

At skifte det kort: Klik på de grønne knapper med et sort kors for at zoome ind; på den grønne knap med en bindestreg for at zoome ud; eller på de grønne pile for tilstødende kort.


METAR-TAF: